Time;durP1;ratioP1;P1;durP2;ratioP2;P2;SDS_P1;SDS_P2;PMS_P1;PMS_P2;Temp;Humidity;BMP_temperature;BMP_pressure;BME280_temperature;BME280_humidity;BME280_pressure;Samples;Min_cycle;Max_cycle;Signal;HPM_P1;HPM_P2
2022/06/21 00:00:50;;;;;;;;;11.67;11.33;;;;;19.29;51.17;101123.50;5063813;28;45675;-49
2022/06/21 00:03:22;;;;;;;;;15.67;14.00;;;;;19.25;51.30;101119.34;5068120;28;45497;-49
2022/06/21 00:05:48;;;;;;;;;12.00;10.67;;;;;19.21;50.85;101112.50;5068678;28;45613;-50
2022/06/21 00:08:17;;;;;;;;;15.33;11.00;;;;;19.18;51.33;101124.38;5059361;28;45758;-50
2022/06/21 00:10:43;;;;;;;;;11.33;11.33;;;;;19.16;51.53;101120.94;5059879;28;45366;-49
2022/06/21 00:13:16;;;;;;;;;14.00;11.00;;;;;19.11;50.95;101112.38;5063166;28;57182;-50
2022/06/21 00:15:42;;;;;;;;;12.67;12.00;;;;;19.06;51.31;101101.97;5062973;28;45528;-49
2022/06/21 00:18:11;;;;;;;;;11.00;10.00;;;;;19.00;51.69;101095.22;5063322;28;45503;-50
2022/06/21 00:20:36;;;;;;;;;11.33;11.00;;;;;18.94;51.65;101089.47;5062722;28;45264;-49
2022/06/21 00:23:02;;;;;;;;;11.33;11.33;;;;;18.88;51.39;101096.19;5071045;28;70242;-49
2022/06/21 00:25:27;;;;;;;;;8.67;8.67;;;;;18.80;51.86;101083.34;5070537;28;64784;-51
2022/06/21 00:27:54;;;;;;;;;8.67;8.67;;;;;18.77;51.55;101080.91;5065089;28;45204;-49
2022/06/21 00:30:20;;;;;;;;;9.67;9.67;;;;;18.77;51.72;101088.13;5065264;28;45304;-49
2022/06/21 00:32:47;;;;;;;;;10.33;10.00;;;;;18.76;51.84;101089.97;5062638;28;46983;-48
2022/06/21 00:35:18;;;;;;;;;10.67;8.67;;;;;18.77;51.94;101091.69;5059099;28;45342;-50
2022/06/21 00:37:44;;;;;;;;;10.33;9.33;;;;;18.76;51.86;101095.34;5065252;28;45463;-49
2022/06/21 00:40:25;;;;;;;;;10.00;10.00;;;;;18.74;51.80;101093.75;5075764;27;45763;-49
2022/06/21 00:43:33;;;;;;;;;8.00;8.00;;;;;18.63;51.88;101090.09;5065120;28;45481;-49
2022/06/21 00:45:59;;;;;;;;;8.33;8.33;;;;;18.58;52.04;101094.13;5064144;28;45610;-49
2022/06/21 00:48:37;;;;;;;;;10.00;10.00;;;;;18.56;52.28;101090.69;5068839;27;45466;-50
2022/06/21 00:51:14;;;;;;;;;8.00;8.00;;;;;18.56;52.36;101086.16;5068155;28;45634;-49
2022/06/21 00:53:44;;;;;;;;;10.00;8.67;;;;;18.60;52.20;101076.00;5073255;27;45359;-50
2022/06/21 00:56:26;;;;;;;;;10.00;9.33;;;;;18.60;52.14;101084.06;5054588;28;45668;-49
2022/06/21 00:58:51;;;;;;;;;10.00;7.33;;;;;18.56;52.15;101077.22;5076548;27;45717;-49
2022/06/21 01:01:24;;;;;;;;;9.33;8.67;;;;;18.52;52.38;101073.91;5056284;28;45228;-48
2022/06/21 01:03:57;;;;;;;;;7.33;7.33;;;;;18.50;52.44;101092.03;5068956;27;45867;-50
2022/06/21 01:06:28;;;;;;;;;8.67;8.67;;;;;18.45;52.00;101107.72;5056588;28;45424;-49
2022/06/21 01:09:01;;;;;;;;;10.00;8.67;;;;;18.41;52.37;101108.91;5060938;28;45291;-48
2022/06/21 01:11:39;;;;;;;;;7.67;7.67;;;;;18.42;52.57;101100.72;5069650;28;45226;-50
2022/06/21 01:14:04;;;;;;;;;6.33;6.33;;;;;18.45;52.51;101099.63;5065971;28;45500;-49
2022/06/21 01:16:32;;;;;;;;;4.33;4.33;;;;;18.45;52.38;101099.63;5060720;28;45395;-48
2022/06/21 01:18:59;;;;;;;;;1.00;0.00;;;;;18.45;52.26;101105.00;5054915;28;45388;-49
2022/06/21 01:21:25;;;;;;;;;7.00;7.00;;;;;18.44;52.36;101104.13;5060741;27;45398;-48
2022/06/21 01:23:58;;;;;;;;;7.33;7.00;;;;;18.45;52.48;101099.63;5068083;28;71039;-49
2022/06/21 01:26:43;;;;;;;;;8.00;7.00;;;;;18.46;52.57;101104.00;5080314;27;45519;-50
2022/06/21 01:29:19;;;;;;;;;7.67;6.33;;;;;18.50;52.68;101097.44;5067486;28;45318;-48
2022/06/21 01:31:45;;;;;;;;;5.33;5.00;;;;;18.56;52.02;101094.22;5049475;28;45236;-49
2022/06/21 01:34:19;;;;;;;;;9.00;7.33;;;;;18.58;52.25;101092.28;5057036;27;45278;-52
2022/06/21 01:36:47;;;;;;;;;6.33;5.67;;;;;18.60;51.99;101090.31;5060315;28;45331;-49
2022/06/21 01:39:27;;;;;;;;;6.33;6.33;;;;;18.64;52.26;101093.63;5068169;28;45255;-52
2022/06/21 01:42:07;;;;;;;;;10.67;6.67;;;;;18.64;52.30;101097.19;5058776;28;45552;-48
2022/06/21 01:44:36;;;;;;;;;7.33;7.00;;;;;18.65;52.24;101104.28;5073585;27;45565;-48
2022/06/21 01:47:05;;;;;;;;;6.67;6.67;;;;;18.68;52.21;101103.16;5056341;28;45672;-49
2022/06/21 01:49:32;;;;;;;;;9.00;7.00;;;;;18.69;52.03;101126.44;5065134;28;45363;-49
2022/06/21 01:52:09;;;;;;;;;6.67;6.00;;;;;18.69;52.20;101126.44;5060715;28;45348;-48
2022/06/21 01:54:39;;;;;;;;;10.00;8.67;;;;;18.73;52.03;101125.22;5060434;28;45440;-49
2022/06/21 01:57:06;;;;;;;;;5.33;5.33;;;;;18.76;52.12;101140.28;5058577;28;45355;-49
2022/06/21 01:59:36;;;;;;;;;6.33;6.33;;;;;18.78;51.60;101154.50;5061514;28;45233;-49
2022/06/21 02:02:08;;;;;;;;;5.33;5.33;;;;;18.78;51.60;101170.66;5053444;28;45575;-48
2022/06/21 02:04:41;;;;;;;;;6.00;6.00;;;;;18.77;51.92;101179.72;5059348;28;45253;-49
2022/06/21 02:07:08;;;;;;;;;10.33;9.67;;;;;18.77;51.88;101195.88;5054765;28;45549;-50
2022/06/21 02:09:43;;;;;;;;;7.33;7.33;;;;;18.81;52.03;101206.31;5042739;28;45723;-49
2022/06/21 02:12:13;;;;;;;;;6.67;6.67;;;;;18.86;51.97;101197.84;5059363;28;45310;-49
2022/06/21 02:14:43;;;;;;;;;8.67;6.67;;;;;18.91;51.99;101193.00;5057555;28;46017;-50
2022/06/21 02:17:23;;;;;;;;;8.33;7.00;;;;;18.96;51.81;101189.94;5056070;28;45633;-49
2022/06/21 02:19:51;;;;;;;;;7.67;6.67;;;;;18.96;51.75;101190.78;5058832;28;45438;-48
2022/06/21 02:22:22;;;;;;;;;6.67;6.67;;;;;18.98;51.79;101186.16;5038951;28;45208;-50
2022/06/21 02:24:48;;;;;;;;;8.00;7.00;;;;;18.98;51.61;101179.88;5060157;28;45418;-52
2022/06/21 02:27:16;;;;;;;;;6.00;6.00;;;;;18.96;51.31;101163.00;5059500;28;45334;-52
2022/06/21 02:29:43;;;;;;;;;5.67;5.67;;;;;18.93;51.60;101158.72;5071070;27;45565;-50
2022/06/21 02:32:27;;;;;;;;;7.33;7.33;;;;;18.89;51.47;101150.94;5062114;28;45442;-50
2022/06/21 02:35:04;;;;;;;;;7.00;7.00;;;;;18.81;51.72;101138.06;5061793;28;45266;-52
2022/06/21 02:37:30;;;;;;;;;6.00;6.00;;;;;18.74;51.52;101118.84;5056954;28;45488;-50
2022/06/21 02:39:56;;;;;;;;;10.33;8.00;;;;;18.66;51.85;101111.38;5065292;27;45252;-50
2022/06/21 02:42:25;;;;;;;;;10.67;7.00;;;;;18.61;51.84;101092.03;5079407;27;45667;-48
2022/06/21 02:44:53;;;;;;;;;9.00;9.00;;;;;18.57;52.06;101087.88;5064321;27;45528;-49
2022/06/21 02:47:26;;;;;;;;;11.33;7.00;;;;;18.54;52.17;101084.56;5057549;28;45335;-51
2022/06/21 02:50:05;;;;;;;;;10.00;8.00;;;;;18.45;52.24;101078.09;5062068;28;45397;-50
2022/06/21 02:52:37;;;;;;;;;7.67;7.33;;;;;18.43;52.54;101085.41;5071573;27;45510;-48
2022/06/21 02:55:07;;;;;;;;;7.67;7.33;;;;;18.43;52.64;101082.72;5071487;27;45568;-48
2022/06/21 02:57:39;;;;;;;;;8.00;8.00;;;;;18.47;52.72;101076.09;5047424;28;45377;-50
2022/06/21 03:00:07;;;;;;;;;6.00;6.00;;;;;18.47;52.63;101068.03;5055734;28;45268;-50
2022/06/21 03:02:33;;;;;;;;;11.00;8.67;;;;;18.46;52.57;101071.69;5057052;28;45422;-50
2022/06/21 03:05:05;;;;;;;;;6.67;6.00;;;;;18.43;52.50;101069.25;5051134;28;71222;-49
2022/06/21 03:07:34;;;;;;;;;9.00;7.00;;;;;18.34;52.44;101071.72;5062342;28;45400;-52
2022/06/21 03:10:00;;;;;;;;;7.33;7.00;;;;;18.33;52.77;101075.38;5056101;28;45451;-49
2022/06/21 03:12:30;;;;;;;;;7.00;7.00;;;;;18.30;52.87;101067.53;5065366;28;58577;-48
2022/06/21 03:15:03;;;;;;;;;9.00;7.00;;;;;18.28;52.65;101056.03;5057743;27;45533;-51
2022/06/21 03:17:57;;;;;;;;;7.33;6.33;;;;;18.29;52.75;101052.38;5059227;28;45385;-49
2022/06/21 03:20:22;;;;;;;;;9.00;8.00;;;;;18.28;52.85;101039.88;5049765;28;45448;-49
2022/06/21 03:22:50;;;;;;;;;5.67;5.67;;;;;18.21;52.86;101035.94;5063987;28;66129;-50
2022/06/21 03:25:24;;;;;;;;;3.67;3.67;;;;;18.11;52.83;101018.81;5058462;28;46047;-50
2022/06/21 03:28:39;;;;;;;;;9.33;9.33;;;;;17.99;53.27;101016.09;5056655;28;45353;-49
2022/06/21 03:31:32;;;;;;;;;7.33;6.00;;;;;17.94;53.36;101007.53;5059098;28;45365;-52
2022/06/21 03:34:02;;;;;;;;;7.00;6.00;;;;;17.95;53.47;100993.09;5057449;28;45316;-49
2022/06/21 03:36:28;;;;;;;;;9.00;7.33;;;;;17.96;53.65;100991.25;5058084;28;46236;-50
2022/06/21 03:39:00;;;;;;;;;7.33;7.00;;;;;17.93;53.40;100980.75;5055720;28;69820;-49
2022/06/21 03:41:43;;;;;;;;;8.00;8.00;;;;;17.89;53.53;100968.50;5059741;28;45484;-49
2022/06/21 03:44:25;;;;;;;;;8.00;7.00;;;;;17.84;53.49;100971.53;5060869;28;45568;-48
2022/06/21 03:46:55;;;;;;;;;9.00;9.00;;;;;17.75;53.84;100954.25;5054176;28;46925;-50
2022/06/21 03:49:44;;;;;;;;;6.67;6.67;;;;;17.69;53.93;100954.72;5056791;28;45370;-49
2022/06/21 03:52:14;;;;;;;;;8.67;7.00;;;;;17.57;54.25;100937.72;5052726;28;45568;-52
2022/06/21 03:54:44;;;;;;;;;8.00;7.00;;;;;17.52;54.67;100934.53;5071196;28;45560;-51
2022/06/21 03:57:16;;;;;;;;;7.67;7.00;;;;;17.48;54.52;100930.38;5055533;28;45387;-53
2022/06/21 03:59:56;;;;;;;;;7.00;6.00;;;;;17.49;54.56;100930.25;5059037;28;45386;-49
2022/06/21 04:02:31;;;;;;;;;6.67;6.33;;;;;17.43;54.46;100919.97;5055434;28;45414;-49
2022/06/21 04:05:39;;;;;;;;;5.33;3.00;;;;;17.32;55.03;100911.88;5076479;27;45314;-49
2022/06/21 04:08:28;;;;;;;;;8.67;7.00;;;;;17.27;55.54;100908.69;5037373;28;46294;-49
2022/06/21 04:11:07;;;;;;;;;6.00;6.00;;;;;17.27;55.58;100906.84;5064204;28;45485;-50
2022/06/21 04:13:50;;;;;;;;;11.33;8.33;;;;;17.26;55.77;100907.84;5056563;28;45505;-48
2022/06/21 04:16:42;;;;;;;;;7.33;7.33;;;;;17.22;56.26;100898.28;5080319;27;45462;-51
2022/06/21 04:19:23;;;;;;;;;8.33;8.33;;;;;17.15;56.29;100914.00;5042571;28;46414;-49
2022/06/21 04:22:06;;;;;;;;;8.33;7.33;;;;;17.08;56.98;100914.59;5063974;28;45637;-49
2022/06/21 04:24:56;;;;;;;;;8.67;8.00;;;;;17.05;57.10;100898.72;5053011;28;45396;-51
2022/06/21 04:27:26;;;;;;;;;12.67;10.00;;;;;17.02;57.71;100906.03;5059842;27;45581;-47
2022/06/21 04:30:12;;;;;;;;;15.67;12.00;;;;;17.06;57.94;100893.22;5057613;28;46397;-50
2022/06/21 04:32:42;;;;;;;;;9.33;9.00;;;;;17.05;57.64;100894.19;5060094;28;45825;-47
2022/06/21 04:35:22;;;;;;;;;9.00;9.00;;;;;16.99;57.71;100900.03;5063666;28;45499;-47
2022/06/21 04:37:58;;;;;;;;;9.00;8.67;;;;;16.91;58.30;100895.25;5073864;27;45334;-47
2022/06/21 04:40:30;;;;;;;;;12.00;9.33;;;;;16.89;59.08;100893.63;5052586;28;47132;-50
2022/06/21 04:43:25;;;;;;;;;9.67;8.00;;;;;16.84;58.42;100900.19;5076119;27;45399;-48
2022/06/21 04:46:04;;;;;;;;;10.67;8.33;;;;;16.77;58.89;100884.66;5068462;28;45286;-50
2022/06/21 04:48:35;;;;;;;;;12.33;10.33;;;;;16.69;59.07;100877.16;5063515;28;45445;-48
2022/06/21 04:51:08;;;;;;;;;9.67;9.67;;;;;16.66;59.61;100885.44;5068893;28;46717;-49
2022/06/21 04:53:42;;;;;;;;;10.67;10.00;;;;;16.65;59.74;100886.44;5068259;27;45434;-48
2022/06/21 04:56:45;;;;;;;;;9.00;8.33;;;;;16.60;59.41;100878.69;5068736;27;45491;-50
2022/06/21 04:59:35;;;;;;;;;9.67;9.67;;;;;16.59;59.83;100876.13;5049259;28;45430;-50
2022/06/21 05:02:02;;;;;;;;;9.67;9.00;;;;;16.53;59.80;100878.31;5062057;27;45410;-48
2022/06/21 05:04:36;;;;;;;;;12.33;9.33;;;;;16.52;60.23;100870.38;5063870;28;45384;-49
2022/06/21 05:07:05;;;;;;;;;10.00;9.33;;;;;16.54;60.72;100868.41;5075293;27;45374;-48
2022/06/21 05:09:32;;;;;;;;;8.67;8.67;;;;;16.56;60.35;100876.34;5063448;28;45524;-48
2022/06/21 05:12:03;;;;;;;;;10.33;9.00;;;;;16.58;60.31;100872.56;5055615;28;45390;-49
2022/06/21 05:14:32;;;;;;;;;11.00;9.67;;;;;16.61;60.11;100885.78;5063197;28;45538;-48
2022/06/21 05:16:58;;;;;;;;;7.33;7.33;;;;;16.62;59.93;100898.25;5055391;28;45372;-49
2022/06/21 05:19:29;;;;;;;;;12.33;8.00;;;;;16.60;59.97;100916.28;5062818;28;45571;-52
2022/06/21 05:21:59;;;;;;;;;11.67;10.33;;;;;16.61;59.97;100926.06;5054832;28;45804;-47
2022/06/21 05:24:25;;;;;;;;;8.67;8.67;;;;;16.63;60.36;100934.00;5063686;27;45256;-47
2022/06/21 05:27:02;;;;;;;;;11.67;10.00;;;;;16.72;60.47;100945.91;5060598;28;45375;-47
2022/06/21 05:29:57;;;;;;;;;8.67;8.67;;;;;16.80;60.01;100935.44;5060226;27;45426;-51
2022/06/21 05:32:28;;;;;;;;;11.00;10.00;;;;;16.84;60.18;100929.75;5058100;28;46243;-50
2022/06/21 05:34:56;;;;;;;;;15.00;11.00;;;;;16.89;59.75;100929.38;5062198;28;45702;-52
2022/06/21 05:37:32;;;;;;;;;11.33;9.00;;;;;16.95;60.07;100933.50;5056127;28;45375;-50
2022/06/21 05:39:59;;;;;;;;;17.33;15.00;;;;;17.02;60.00;100942.78;5065666;28;45447;-51
2022/06/21 05:42:26;;;;;;;;;13.00;11.67;;;;;17.09;59.52;100935.13;5061487;28;45652;-47
2022/06/21 05:44:54;;;;;;;;;9.33;8.00;;;;;17.12;59.32;100937.59;5058245;28;45405;-49
2022/06/21 05:47:36;;;;;;;;;10.33;10.33;;;;;17.18;59.14;100929.03;5058535;28;45298;-49
2022/06/21 05:50:05;;;;;;;;;9.33;9.33;;;;;17.22;59.39;100929.69;5060282;28;45367;-49
2022/06/21 05:52:32;;;;;;;;;12.67;10.00;;;;;17.25;59.33;100927.63;5068490;28;45350;-50
2022/06/21 05:55:02;;;;;;;;;13.67;12.00;;;;;17.33;58.97;100929.72;5068899;28;45268;-52
2022/06/21 05:57:37;;;;;;;;;11.33;10.00;;;;;17.40;59.15;100933.63;5060377;28;45389;-50
2022/06/21 06:00:05;;;;;;;;;13.33;10.33;;;;;17.48;59.12;100927.66;5058607;28;45721;-51
2022/06/21 06:02:35;;;;;;;;;12.00;8.00;;;;;17.56;59.14;100910.94;5048478;28;45457;-52
2022/06/21 06:05:11;;;;;;;;;16.33;15.67;;;;;17.57;59.19;100907.28;5057559;28;45240;-50
2022/06/21 06:07:43;;;;;;;;;12.00;8.00;;;;;17.52;58.69;100911.19;5061681;28;45393;-51
2022/06/21 06:10:09;;;;;;;;;11.00;9.67;;;;;17.46;59.11;100914.34;5058591;28;45363;-49
2022/06/21 06:12:43;;;;;;;;;11.33;10.00;;;;;17.48;58.85;100919.59;5058792;28;46244;-51
2022/06/21 06:15:13;;;;;;;;;10.00;10.00;;;;;17.51;58.89;100916.69;5047617;28;45819;-48
2022/06/21 06:17:58;;;;;;;;;11.00;9.00;;;;;17.55;59.26;100920.84;5077971;27;45385;-49
2022/06/21 06:20:34;;;;;;;;;13.67;9.00;;;;;17.63;58.91;100909.50;5062878;28;45449;-52
2022/06/21 06:23:12;;;;;;;;;11.00;11.00;;;;;17.65;58.65;100904.84;5060187;28;45308;-51
2022/06/21 06:25:48;;;;;;;;;13.67;12.00;;;;;17.63;58.51;100899.59;5061227;28;45442;-51
2022/06/21 06:28:32;;;;;;;;;13.33;10.00;;;;;17.62;58.26;100888.97;5064399;28;45235;-49
2022/06/21 06:31:16;;;;;;;;;10.67;9.33;;;;;17.58;58.63;100882.97;5045658;27;45261;-49
2022/06/21 06:33:47;;;;;;;;;11.33;9.67;;;;;17.62;58.72;100887.13;5050483;28;45956;-48
2022/06/21 06:36:22;;;;;;;;;11.33;11.33;;;;;17.71;58.91;100899.00;5085123;27;45381;-50
2022/06/21 06:38:48;;;;;;;;;11.67;11.33;;;;;17.88;58.68;100896.81;5063634;28;45435;-64
2022/06/21 06:41:26;;;;;;;;;10.67;10.33;;;;;18.09;58.25;100905.03;5049667;27;45411;-63
2022/06/21 06:43:57;;;;;;;;;11.00;9.00;;;;;18.17;57.76;100905.25;5038524;28;45347;-64
2022/06/21 06:46:35;;;;;;;;;11.33;9.33;;;;;18.30;57.76;100914.09;5064567;28;45513;-65
2022/06/21 06:49:20;;;;;;;;;13.00;12.33;;;;;18.47;57.48;100933.38;5062779;28;45181;-65
2022/06/21 06:52:04;;;;;;;;;9.00;9.00;;;;;18.73;56.87;100931.22;5060237;28;45568;-64
2022/06/21 06:54:45;;;;;;;;;12.67;10.67;;;;;19.07;56.49;100935.69;5058478;28;47128;-56
2022/06/21 06:57:43;;;;;;;;;9.00;8.00;;;;;19.35;55.83;100934.22;5058195;28;45378;-56
2022/06/21 07:00:11;;;;;;;;;8.33;8.33;;;;;19.73;54.86;100935.47;5060178;28;45568;-56
2022/06/21 07:02:45;;;;;;;;;9.33;9.33;;;;;20.11;54.32;100938.53;5063081;28;45514;-55
2022/06/21 07:05:19;;;;;;;;;10.33;10.33;;;;;20.47;53.27;100947.88;5058467;28;47132;-55
2022/06/21 07:07:53;;;;;;;;;8.33;8.33;;;;;20.63;53.57;100943.81;5063533;28;47296;-57
2022/06/21 07:10:21;;;;;;;;;9.00;9.00;;;;;20.78;52.53;100939.75;5064090;27;45311;-56
2022/06/21 07:12:48;;;;;;;;;9.33;9.33;;;;;20.94;52.18;100938.34;5058724;28;45386;-56
2022/06/21 07:15:14;;;;;;;;;11.67;11.00;;;;;20.98;52.11;100954.13;5060254;28;46209;-57
2022/06/21 07:17:53;;;;;;;;;9.33;9.33;;;;;20.69;51.73;100953.19;5066179;28;45737;-56
2022/06/21 07:20:23;;;;;;;;;13.00;13.00;;;;;20.51;52.04;100961.97;5051699;28;45501;-57
2022/06/21 07:22:51;;;;;;;;;14.33;12.33;;;;;20.47;52.83;100963.25;5050364;28;45314;-57
2022/06/21 07:25:36;;;;;;;;;14.67;13.33;;;;;20.64;52.69;100967.97;5056033;28;46834;-54
2022/06/21 07:28:08;;;;;;;;;13.00;10.67;;;;;20.94;52.33;100974.34;5061149;28;45411;-56
2022/06/21 07:30:39;;;;;;;;;12.00;11.33;;;;;21.21;51.72;100970.09;5081798;27;45657;-50
2022/06/21 07:33:13;;;;;;;;;10.67;9.33;;;;;21.43;51.94;100970.78;5054016;28;45511;-57
2022/06/21 07:35:44;;;;;;;;;13.00;13.00;;;;;21.69;50.59;100973.78;5036939;28;46178;-57
2022/06/21 07:38:27;;;;;;;;;12.67;11.00;;;;;21.95;50.81;100965.03;5055988;28;45543;-57
2022/06/21 07:41:00;;;;;;;;;14.00;13.00;;;;;22.14;50.84;100961.41;5058079;28;45398;-57
2022/06/21 07:43:32;;;;;;;;;13.33;11.00;;;;;22.17;50.24;100961.09;5056169;28;45276;-57
2022/06/21 07:46:00;;;;;;;;;7.33;7.33;;;;;22.18;50.10;100961.97;5051224;28;45541;-58
2022/06/21 07:48:48;;;;;;;;;10.33;10.33;;;;;22.26;50.27;100943.09;5055143;28;45543;-57
2022/06/21 07:51:19;;;;;;;;;14.33;13.33;;;;;22.31;49.70;100949.75;5057535;28;45747;-57
2022/06/21 07:54:19;;;;;;;;;12.33;10.33;;;;;22.26;48.98;100964.78;5060137;28;45675;-56
2022/06/21 07:56:47;;;;;;;;;13.67;12.00;;;;;22.18;49.71;100973.66;5055216;28;45591;-56
2022/06/21 07:59:28;;;;;;;;;12.00;11.33;;;;;22.12;49.44;100968.81;5043102;28;45474;-57
2022/06/21 08:07:56;;;;;;;;;10.67;10.67;;;;;22.15;49.99;100968.53;5073763;27;45371;-57
2022/06/21 08:10:31;;;;;;;;;12.67;12.67;;;;;22.17;49.63;100969.22;5057253;28;45422;-56
2022/06/21 08:12:57;;;;;;;;;13.00;10.67;;;;;22.15;49.72;100963.13;5062574;28;45398;-57
2022/06/21 08:15:27;;;;;;;;;12.33;9.67;;;;;22.20;49.72;100958.09;5060808;28;45446;-57
2022/06/21 08:18:29;;;;;;;;;14.67;11.67;;;;;22.18;49.87;100951.13;5045322;28;45459;-57
2022/06/21 08:21:06;;;;;;;;;13.33;11.67;;;;;22.22;50.00;100968.78;5065643;28;45944;-57
2022/06/21 08:23:57;;;;;;;;;11.33;9.00;;;;;22.33;49.96;100970.44;5061470;28;45451;-56
2022/06/21 08:26:36;;;;;;;;;13.33;13.33;;;;;22.48;49.16;100968.13;5060202;28;45520;-57
2022/06/21 08:29:22;;;;;;;;;11.00;11.00;;;;;22.51;49.35;100976.78;5059397;28;46227;-57
2022/06/21 08:31:55;;;;;;;;;14.00;13.33;;;;;22.53;49.40;100977.50;5059012;28;45540;-57
2022/06/21 08:34:42;;;;;;;;;8.67;8.67;;;;;22.65;49.50;100978.16;5056729;28;45358;-58
2022/06/21 08:37:35;;;;;;;;;11.33;11.33;;;;;22.82;49.27;100978.34;5055791;28;45491;-57
2022/06/21 08:40:31;;;;;;;;;12.33;11.33;;;;;23.03;49.13;100989.75;5053438;28;47051;-57
2022/06/21 08:43:25;;;;;;;;;12.00;11.00;;;;;23.14;48.82;100980.59;5059539;28;45643;-57
2022/06/21 08:46:12;;;;;;;;;13.00;13.00;;;;;23.20;48.44;100973.69;5059869;28;45423;-58
2022/06/21 08:49:07;;;;;;;;;12.00;12.00;;;;;23.33;48.75;100984.97;5057112;28;45312;-57
2022/06/21 08:52:00;;;;;;;;;12.33;12.33;;;;;23.51;48.07;100979.53;5061206;28;45434;-58
2022/06/21 08:55:04;;;;;;;;;11.33;10.00;;;;;23.57;48.19;100970.78;5051441;28;45816;-57
2022/06/21 08:57:39;;;;;;;;;10.33;10.00;;;;;23.57;48.00;100969.91;5049087;28;45469;-57
2022/06/21 09:00:14;;;;;;;;;12.33;11.67;;;;;23.52;48.10;100973.09;5065803;27;45597;-57
2022/06/21 09:02:55;;;;;;;;;14.00;13.67;;;;;23.36;48.12;100962.09;5060263;27;45547;-57
2022/06/21 09:05:34;;;;;;;;;15.00;15.00;;;;;23.22;48.11;100955.38;5056362;28;45667;-57
2022/06/21 09:08:20;;;;;;;;;14.67;14.67;;;;;23.09;48.44;100966.59;5064603;28;45430;-57
2022/06/21 09:10:55;;;;;;;;;11.33;11.33;;;;;23.07;48.65;100960.47;5059717;28;45373;-58
2022/06/21 09:13:38;;;;;;;;;11.33;11.00;;;;;23.07;48.31;100960.47;5054190;27;45482;-57
2022/06/21 09:16:12;;;;;;;;;13.00;11.33;;;;;23.06;48.67;100965.06;5054597;28;45427;-57
2022/06/21 09:18:54;;;;;;;;;11.00;11.00;;;;;23.05;48.48;100962.47;5043989;28;45459;-57
2022/06/21 09:21:35;;;;;;;;;14.00;14.00;;;;;23.02;48.78;100974.47;5056722;28;45386;-57
2022/06/21 09:24:17;;;;;;;;;14.33;13.00;;;;;23.20;48.89;100970.97;5052412;28;46424;-57
2022/06/21 09:26:53;;;;;;;;;12.33;11.33;;;;;23.47;48.33;100964.59;5055752;28;45532;-57
2022/06/21 09:29:42;;;;;;;;;11.00;11.00;;;;;23.87;48.03;100968.59;5059861;28;45536;-56
2022/06/21 09:32:13;;;;;;;;;11.67;10.67;;;;;24.48;46.96;100957.72;5058036;28;45465;-56
2022/06/21 09:35:16;;;;;;;;;10.00;10.00;;;;;24.96;46.64;100962.66;5058544;28;46116;-57
2022/06/21 09:37:59;;;;;;;;;10.67;10.33;;;;;25.20;45.82;100961.81;5061264;28;45517;-57
2022/06/21 09:40:36;;;;;;;;;12.00;11.00;;;;;25.45;45.04;100967.28;5047556;28;45391;-57
2022/06/21 09:43:08;;;;;;;;;13.67;10.00;;;;;25.84;44.27;100964.72;5055100;28;45454;-57
2022/06/21 09:45:59;;;;;;;;;11.00;10.67;;;;;26.40;43.76;100962.00;5056541;28;45437;-58
2022/06/21 09:48:30;;;;;;;;;15.00;14.00;;;;;26.95;42.27;100953.03;5059297;28;45388;-57
2022/06/21 09:51:04;;;;;;;;;9.67;9.67;;;;;27.21;41.92;100939.88;5056142;28;45516;-58
2022/06/21 09:53:48;;;;;;;;;14.33;11.33;;;;;27.30;41.33;100942.53;5058001;28;45536;-57
2022/06/21 09:56:37;;;;;;;;;11.00;11.00;;;;;27.44;41.66;100949.13;5088371;27;48007;-57
2022/06/21 09:59:26;;;;;;;;;17.33;12.00;;;;;27.81;41.29;100950.97;5069148;28;45821;-57
2022/06/21 10:02:20;;;;;;;;;12.67;10.33;;;;;28.15;40.58;100949.59;5055252;28;45466;-57
2022/06/21 10:05:22;;;;;;;;;15.00;15.00;;;;;28.08;40.43;100954.09;5042858;28;45393;-58
2022/06/21 10:08:06;;;;;;;;;9.33;9.33;;;;;27.89;40.46;100944.56;5055232;28;46353;-57
2022/06/21 10:10:55;;;;;;;;;14.00;12.00;;;;;27.97;40.34;100938.19;5058296;28;45500;-57
2022/06/21 10:13:58;;;;;;;;;15.33;13.33;;;;;28.27;39.36;100927.25;5058293;28;45291;-57
2022/06/21 10:16:26;;;;;;;;;14.00;11.33;;;;;28.64;38.90;100930.84;5050345;28;45558;-57
2022/06/21 10:19:10;;;;;;;;;13.67;13.67;;;;;28.78;38.74;100929.97;5058192;28;46005;-57
2022/06/21 10:21:56;;;;;;;;;11.33;10.33;;;;;29.07;38.40;100925.41;5056955;28;45284;-57
2022/06/21 10:24:30;;;;;;;;;14.33;13.00;;;;;29.85;38.21;100921.84;5048297;28;45661;-57
2022/06/21 10:27:29;;;;;;;;;11.67;10.00;;;;;30.57;35.86;100913.38;5059028;28;45427;-57
2022/06/21 10:30:03;;;;;;;;;10.00;9.33;;;;;31.11;35.71;100915.19;5055467;28;46925;-57
2022/06/21 10:32:47;;;;;;;;;10.00;10.00;;;;;31.49;35.09;100905.47;5055974;28;45438;-58
2022/06/21 10:35:30;;;;;;;;;12.00;11.00;;;;;31.91;35.24;100907.97;5061142;28;45421;-57
2022/06/21 10:38:29;;;;;;;;;10.67;10.67;;;;;32.25;34.83;100904.03;5054097;28;45308;-58
2022/06/21 10:41:16;;;;;;;;;11.00;9.50;;;;;32.44;33.62;100906.94;5037969;28;47018;-57
2022/06/21 10:43:53;;;;;;;;;10.00;10.00;;;;;32.55;32.99;100891.63;5058748;28;45654;-57
2022/06/21 10:46:38;;;;;;;;;11.00;11.00;;;;;32.60;33.30;100889.91;5046156;28;45608;-57
2022/06/21 10:49:14;;;;;;;;;17.00;14.67;;;;;32.60;33.30;100881.63;5058571;28;45517;-57
2022/06/21 10:52:17;;;;;;;;;10.67;10.67;;;;;32.52;33.27;100883.81;5051613;28;45675;-57
2022/06/21 10:55:01;;;;;;;;;9.67;9.67;;;;;32.85;32.48;100888.28;5049355;28;45458;-58
2022/06/21 10:58:01;;;;;;;;;14.00;9.67;;;;;33.13;32.61;100890.63;5057173;28;45673;-57
2022/06/21 11:03:41;;;;;;;;;9.33;8.67;;;;;33.64;31.55;100883.19;5048644;28;45742;-57
2022/06/21 11:06:35;;;;;;;;;10.00;10.00;;;;;33.78;31.09;100884.72;5057243;28;45783;-58
2022/06/21 11:09:09;;;;;;;;;8.00;8.00;;;;;33.84;30.01;100874.69;5051365;28;45314;-58
2022/06/21 11:11:55;;;;;;;;;9.67;8.33;;;;;33.82;30.64;100879.63;5052448;28;45591;-58
2022/06/21 11:14:40;;;;;;;;;9.00;9.00;;;;;33.89;30.50;100865.75;5057761;28;46047;-59
2022/06/21 11:17:17;;;;;;;;;7.67;7.33;;;;;34.00;30.50;100866.88;5058358;28;45337;-57
2022/06/21 11:19:54;;;;;;;;;9.67;8.67;;;;;34.03;31.00;100867.28;5056656;28;45403;-57
2022/06/21 11:22:41;;;;;;;;;8.00;8.00;;;;;34.12;30.42;100865.88;5056784;28;45386;-57
2022/06/21 11:25:11;;;;;;;;;9.00;9.00;;;;;34.07;29.28;100873.19;5057226;28;46261;-57
2022/06/21 11:27:50;;;;;;;;;13.00;10.67;;;;;33.87;30.45;100870.66;5056089;28;45471;-56
2022/06/21 11:30:22;;;;;;;;;10.33;10.33;;;;;33.83;30.04;100873.00;5058506;28;45574;-57
2022/06/21 11:33:06;;;;;;;;;14.33;10.33;;;;;33.84;30.86;100871.13;5054463;28;45512;-57
2022/06/21 11:35:46;;;;;;;;;9.67;9.67;;;;;33.69;30.98;100871.44;5052848;28;45536;-57
2022/06/21 11:38:35;;;;;;;;;9.33;9.33;;;;;33.76;30.84;100872.22;5056763;28;45360;-57
2022/06/21 11:44:59;;;;;;;;;10.00;10.00;;;;;33.74;30.36;100874.34;5055093;28;45516;-57
2022/06/21 11:47:49;;;;;;;;;8.67;8.67;;;;;33.45;30.83;100863.00;5054776;28;45941;-57
2022/06/21 11:50:18;;;;;;;;;9.67;9.67;;;;;33.31;31.29;100867.78;5054103;28;45300;-57
2022/06/21 11:52:56;;;;;;;;;13.00;11.33;;;;;33.51;31.04;100864.03;5056066;28;45469;-57
2022/06/21 11:55:43;;;;;;;;;10.67;10.67;;;;;33.73;30.98;100862.50;5053887;28;45585;-57
2022/06/21 11:58:23;;;;;;;;;11.33;10.00;;;;;33.83;30.86;100861.97;5053272;28;46346;-57
2022/06/21 12:00:55;;;;;;;;;11.00;9.67;;;;;33.89;30.55;100865.75;5053051;28;45358;-57
2022/06/21 12:03:59;;;;;;;;;12.67;12.67;;;;;33.53;31.13;100864.63;5050211;28;45653;-57
2022/06/21 12:07:03;;;;;;;;;14.00;13.67;;;;;33.40;31.05;100869.22;5043290;28;46083;-58
2022/06/21 12:09:45;;;;;;;;;11.67;10.33;;;;;33.46;30.89;100870.22;5054685;28;46290;-58
2022/06/21 12:12:33;;;;;;;;;11.33;9.33;;;;;33.29;31.44;100870.78;5054900;28;45385;-58
2022/06/21 12:15:08;;;;;;;;;10.33;9.33;;;;;33.10;31.55;100867.13;5052382;28;45412;-57